Time;durP1;ratioP1;P1;durP2;ratioP2;P2;SDS_P1;SDS_P2;PMS_P1;PMS_P2;Temp;Humidity;BMP_temperature;BMP_pressure;BME280_temperature;BME280_humidity;BME280_pressure;Samples;Min_cycle;Max_cycle;Signal;HPM_P1;HPM_P2
2022/09/27 00:01:14;;;;;;;17.70;13.90;;;18.30;99.90;;;;;;5139260;27;20365;-82
2022/09/27 00:03:41;;;;;;;15.63;13.27;;;18.00;99.90;;;;;;5135527;27;20411;-82
2022/09/27 00:06:26;;;;;;;15.00;12.20;;;18.00;99.90;;;;;;5134082;27;20400;-83
2022/09/27 00:08:53;;;;;;;14.30;11.13;;;18.00;99.90;;;;;;5133164;27;20369;-83
2022/09/27 00:11:28;;;;;;;13.82;10.25;;;18.30;99.90;;;;;;5133339;27;20373;-82
2022/09/27 00:13:57;;;;;;;13.05;9.57;;;18.70;99.90;;;;;;5133275;27;20369;-81
2022/09/27 00:16:27;;;;;;;11.83;8.83;;;18.90;99.90;;;;;;5133139;27;20482;-83
2022/09/27 00:18:59;;;;;;;12.65;9.30;;;19.10;99.90;;;;;;5132912;27;21222;-83
2022/09/27 00:21:27;;;;;;;13.57;9.70;;;19.10;99.90;;;;;;5132550;27;20377;-83
2022/09/27 00:23:54;;;;;;;17.02;11.70;;;19.20;99.90;;;;;;5132823;27;20360;-83
2022/09/27 00:26:21;;;;;;;13.48;11.48;;;19.10;99.90;;;;;;5132207;27;20455;-83
2022/09/27 00:28:48;;;;;;;15.50;10.55;;;19.10;99.90;;;;;;5132413;27;20361;-83
2022/09/27 00:31:23;;;;;;;14.80;9.60;;;19.10;99.90;;;;;;5132483;27;20380;-83
2022/09/27 00:33:53;;;;;;;11.23;8.23;;;19.20;99.90;;;;;;5131969;27;20361;-82
2022/09/27 00:36:22;;;;;;;11.50;7.82;;;19.20;99.90;;;;;;5131215;27;20393;-83
2022/09/27 00:38:49;;;;;;;10.23;6.82;;;19.10;99.90;;;;;;5131700;27;20435;-83
2022/09/27 00:41:31;;;;;;;9.77;7.30;;;19.10;99.90;;;;;;5132103;27;20384;-84
2022/09/27 00:44:04;;;;;;;9.63;7.13;;;19.20;99.90;;;;;;5131820;27;20373;-83
2022/09/27 00:46:46;;;;;;;10.68;7.45;;;19.20;99.90;;;;;;5132003;27;20770;-83
2022/09/27 00:49:13;;;;;;;10.55;6.70;;;19.20;99.90;;;;;;5131790;27;20732;-83
2022/09/27 00:51:42;;;;;;;12.50;7.30;;;19.30;99.90;;;;;;5132509;27;20360;-84
2022/09/27 00:54:13;;;;;;;11.65;7.28;;;19.30;99.90;;;;;;5132965;27;20736;-83
2022/09/27 00:56:42;;;;;;;12.20;7.30;;;19.60;99.90;;;;;;5132364;27;20397;-84
2022/09/27 00:59:20;;;;;;;11.55;7.18;;;19.80;99.90;;;;;;5131351;28;20375;-84
2022/09/27 01:01:48;;;;;;;11.90;7.68;;;20.20;99.90;;;;;;5132041;27;20371;-84
2022/09/27 01:04:24;;;;;;;11.13;6.75;;;20.30;99.90;;;;;;5131698;27;20781;-84
2022/09/27 01:06:51;;;;;;;10.43;6.55;;;20.50;99.90;;;;;;5131426;27;20794;-84
2022/09/27 01:09:20;;;;;;;8.07;6.07;;;21.00;99.90;;;;;;5131637;27;20365;-84
2022/09/27 01:12:01;;;;;;;9.45;5.68;;;21.40;99.90;;;;;;5131739;27;21188;-84
2022/09/27 01:14:35;;;;;;;10.30;5.83;;;21.80;99.90;;;;;;5109724;28;20385;-84
2022/09/27 01:17:09;;;;;;;9.30;6.28;;;21.80;99.90;;;;;;5122012;27;20401;-84
2022/09/27 01:20:03;;;;;;;9.27;6.20;;;22.20;99.90;;;;;;5131608;28;20452;-84
2022/09/27 01:22:46;;;;;;;9.55;5.88;;;22.50;99.90;;;;;;5131805;28;20364;-84
2022/09/27 01:25:48;;;;;;;7.40;5.57;;;22.70;99.90;;;;;;5127469;27;20357;-84
2022/09/27 01:28:51;;;;;;;8.13;5.77;;;23.00;99.90;;;;;;5125997;27;20387;-83
2022/09/27 01:31:40;;;;;;;9.60;5.68;;;23.10;99.60;;;;;;5131315;27;20459;-84
2022/09/27 01:34:30;;;;;;;8.65;5.22;;;22.70;99.30;;;;;;5096752;28;20405;-84
2022/09/27 01:37:36;;;;;;;12.63;5.00;;;22.30;99.90;;;;;;5128481;27;20764;-84
2022/09/27 01:40:33;;;;;;;9.47;5.43;;;22.20;99.90;;;;;;5032512;28;20390;-83
2022/09/27 01:43:09;;;;;;;9.65;5.18;;;22.20;99.90;;;;;;5032507;28;20417;-84
2022/09/27 01:45:47;;;;;;;9.23;4.82;;;22.40;99.20;;;;;;5031824;28;20385;-83
2022/09/27 01:48:45;;;;;;;11.40;5.33;;;22.40;99.80;;;;;;5032289;28;20392;-83
2022/09/27 01:51:22;;;;;;;8.60;4.40;;;22.10;99.90;;;;;;5027015;28;20858;-83
2022/09/27 01:53:56;;;;;;;10.43;5.47;;;22.10;99.90;;;;;;5036254;28;20385;-82
2022/09/27 01:56:40;;;;;;;15.13;7.43;;;22.40;99.90;;;;;;5032333;28;20405;-82
2022/09/27 01:59:13;;;;;;;12.90;6.70;;;23.20;99.90;;;;;;5032258;28;20702;-83
2022/09/27 02:01:43;;;;;;;12.60;6.90;;;24.20;99.30;;;;;;5015550;28;20874;-82
2022/09/27 02:04:13;;;;;;;11.93;6.70;;;24.00;97.50;;;;;;5031899;28;20377;-85
2022/09/27 02:06:44;;;;;;;11.43;5.35;;;24.70;98.40;;;;;;5031775;28;20401;-84
2022/09/27 02:09:29;;;;;;;5.82;3.83;;;25.30;94.50;;;;;;5015448;28;20706;-84
2022/09/27 02:12:02;;;;;;;6.88;4.20;;;25.10;90.40;;;;;;5035020;28;20515;-84
2022/09/27 02:15:03;;;;;;;6.60;4.40;;;24.80;92.00;;;;;;5036576;28;20512;-83
2022/09/27 02:17:42;;;;;;;7.53;5.15;;;24.70;91.60;;;;;;5032315;28;20443;-83
2022/09/27 02:20:25;;;;;;;8.57;4.80;;;24.20;93.10;;;;;;5036000;28;20377;-83
2022/09/27 02:23:00;;;;;;;9.15;4.70;;;24.50;94.40;;;;;;5038096;28;20381;-82
2022/09/27 02:25:50;;;;;;;7.28;3.58;;;26.60;92.50;;;;;;5042348;28;20383;-84
2022/09/27 02:28:39;;;;;;;7.65;4.20;;;27.30;81.70;;;;;;5046331;28;20443;-84
2022/09/27 02:31:06;;;;;;;5.68;3.30;;;27.00;76.50;;;;;;5053249;28;20397;-83
2022/09/27 02:33:44;;;;;;;4.88;2.90;;;26.60;76.40;;;;;;5053960;28;21131;-84
2022/09/27 02:36:11;;;;;;;3.83;2.43;;;26.40;77.60;;;;;;5053187;28;20409;-83
2022/09/27 02:38:38;;;;;;;5.35;2.80;;;27.20;76.30;;;;;;5051051;28;20388;-84
2022/09/27 02:41:17;;;;;;;6.60;2.40;;;28.30;72.90;;;;;;5050709;28;20460;-83
2022/09/27 02:43:47;;;;;;;3.78;2.25;;;29.20;69.20;;;;;;5043789;28;20405;-83
2022/09/27 02:46:14;;;;;;;2.67;2.28;;;29.90;64.10;;;;;;5036019;28;20377;-84
2022/09/27 02:49:22;;;;;;;4.45;2.40;;;29.30;64.40;;;;;;5038477;28;20405;-83
2022/09/27 02:52:14;;;;;;;2.78;1.90;;;29.50;63.40;;;;;;5020351;28;20402;-82
2022/09/27 02:54:53;;;;;;;3.05;2.58;;;28.10;64.00;;;;;;5113968;27;20384;-83
2022/09/27 02:57:41;;;;;;;4.00;2.20;;;27.00;66.60;;;;;;5139792;27;20900;-84
2022/09/27 03:00:11;;;;;;;2.92;2.05;;;26.20;69.60;;;;;;5137166;27;20369;-84
2022/09/27 03:02:41;;;;;;;4.03;2.03;;;25.40;72.20;;;;;;5134742;27;20381;-83
2022/09/27 03:05:15;;;;;;;2.50;2.10;;;25.00;74.10;;;;;;5105092;28;20952;-83
2022/09/27 03:07:43;;;;;;;3.42;2.10;;;24.70;74.40;;;;;;5131834;27;20714;-84
2022/09/27 03:10:23;;;;;;;3.30;2.27;;;24.40;76.30;;;;;;5134257;27;20452;-83
2022/09/27 03:12:51;;;;;;;3.08;2.30;;;24.10;77.80;;;;;;5135769;27;20357;-83
2022/09/27 03:15:18;;;;;;;3.00;2.08;;;23.90;75.90;;;;;;5134360;27;20380;-83
2022/09/27 03:17:45;;;;;;;3.45;1.98;;;23.90;76.20;;;;;;5134274;27;20405;-82
2022/09/27 03:20:12;;;;;;;3.03;2.10;;;24.00;76.70;;;;;;5134827;27;20456;-82
2022/09/27 03:22:39;;;;;;;4.28;2.20;;;23.90;77.00;;;;;;5137193;27;20450;-81
2022/09/27 03:25:08;;;;;;;3.03;1.83;;;24.10;76.50;;;;;;5136608;27;20379;-83
2022/09/27 03:27:35;;;;;;;2.10;1.70;;;24.10;72.70;;;;;;5136373;27;20762;-84
2022/09/27 03:30:02;;;;;;;1.90;1.70;;;23.70;74.80;;;;;;5114868;27;20737;-81
2022/09/27 03:32:30;;;;;;;2.08;1.70;;;23.50;76.90;;;;;;5135100;27;20373;-83
2022/09/27 03:34:57;;;;;;;3.15;1.70;;;23.30;77.60;;;;;;5136459;27;20409;-84
2022/09/27 03:37:25;;;;;;;2.58;1.70;;;22.90;79.20;;;;;;5122547;27;20760;-82
2022/09/27 03:39:52;;;;;;;2.85;1.50;;;22.60;80.10;;;;;;5136556;27;20385;-82
2022/09/27 03:42:20;;;;;;;2.17;1.50;;;22.40;81.20;;;;;;5138477;27;20464;-82
2022/09/27 03:44:47;;;;;;;1.80;1.70;;;22.30;82.00;;;;;;5137629;27;20459;-83
2022/09/27 03:47:14;;;;;;;2.65;1.90;;;22.10;83.10;;;;;;5136085;27;20404;-81
2022/09/27 03:49:41;;;;;;;5.63;2.33;;;21.90;88.80;;;;;;5133059;27;20766;-82
2022/09/27 03:52:08;;;;;;;3.67;2.20;;;21.30;93.90;;;;;;5133844;27;20405;-81
2022/09/27 03:54:35;;;;;;;3.53;2.40;;;20.50;99.90;;;;;;5134956;27;20361;-81
2022/09/27 03:57:06;;;;;;;4.70;2.47;;;20.00;99.90;;;;;;5133987;27;20434;-82
2022/09/27 03:59:33;;;;;;;3.10;2.15;;;19.70;99.90;;;;;;5136306;27;20718;-83
2022/09/27 04:02:00;;;;;;;3.47;2.70;;;19.40;99.90;;;;;;5125054;27;20371;-81
2022/09/27 04:04:27;;;;;;;5.13;2.53;;;19.40;99.90;;;;;;5132757;27;20365;-82
2022/09/27 04:06:55;;;;;;;8.77;2.88;;;19.40;99.90;;;;;;5133189;27;20401;-79
2022/09/27 04:09:25;;;;;;;5.07;2.58;;;19.50;99.90;;;;;;5133472;27;20373;-80
2022/09/27 04:11:52;;;;;;;4.03;3.05;;;19.50;99.90;;;;;;5136239;27;20860;-80
2022/09/27 04:14:19;;;;;;;2.80;2.30;;;19.40;99.90;;;;;;5133590;27;20384;-81
2022/09/27 04:16:46;;;;;;;4.32;2.90;;;19.40;99.90;;;;;;5133358;27;20873;-80
2022/09/27 04:19:13;;;;;;;5.13;2.63;;;19.40;99.90;;;;;;5132420;27;20373;-80
2022/09/27 04:21:40;;;;;;;5.85;2.78;;;19.40;99.90;;;;;;5132040;27;20388;-83
2022/09/27 04:24:07;;;;;;;4.70;2.33;;;19.40;99.90;;;;;;5133970;27;20376;-81
2022/09/27 04:26:34;;;;;;;4.32;2.45;;;19.20;99.90;;;;;;5118757;27;20383;-80
2022/09/27 04:29:01;;;;;;;5.88;2.80;;;19.20;99.90;;;;;;5133070;27;20411;-81
2022/09/27 04:31:28;;;;;;;7.28;2.85;;;19.70;99.90;;;;;;5136719;27;20388;-80
2022/09/27 04:33:56;;;;;;;5.57;2.33;;;21.00;99.90;;;;;;5134424;27;20425;-81
2022/09/27 04:36:28;;;;;;;4.45;2.20;;;21.90;99.90;;;;;;5105290;28;20378;-80
2022/09/27 04:38:58;;;;;;;5.28;2.00;;;22.50;99.90;;;;;;5135093;27;20777;-80
2022/09/27 04:41:27;;;;;;;3.53;1.95;;;23.20;99.90;;;;;;5101931;28;21023;-80
2022/09/27 04:43:55;;;;;;;4.53;2.00;;;23.50;99.90;;;;;;5129888;27;20826;-80
2022/09/27 04:46:23;;;;;;;2.22;1.58;;;24.20;99.90;;;;;;5133211;27;20373;-81
2022/09/27 04:48:50;;;;;;;2.42;1.30;;;24.40;99.90;;;;;;5131448;27;20421;-84
2022/09/27 04:51:18;;;;;;;1.52;1.17;;;24.80;99.90;;;;;;5133222;27;20437;-81
2022/09/27 04:53:46;;;;;;;1.60;1.13;;;24.30;99.90;;;;;;5131481;27;20386;-80
2022/09/27 04:56:14;;;;;;;2.78;1.70;;;23.80;99.90;;;;;;5130985;27;20476;-82
2022/09/27 04:58:42;;;;;;;5.97;3.30;;;24.40;99.90;;;;;;5111816;28;20387;-80
2022/09/27 05:01:09;;;;;;;5.10;2.90;;;25.10;99.90;;;;;;5130225;27;20377;-81
2022/09/27 05:03:36;;;;;;;2.38;1.40;;;24.90;99.80;;;;;;5134939;27;20388;-81
2022/09/27 05:06:04;;;;;;;2.50;1.20;;;24.10;98.50;;;;;;5135436;28;20389;-81
2022/09/27 05:08:31;;;;;;;0.98;0.98;;;22.90;99.90;;;;;;5135000;27;20989;-81
2022/09/27 05:10:58;;;;;;;1.30;1.20;;;22.10;99.90;;;;;;5133421;27;20392;-82
2022/09/27 05:13:25;;;;;;;1.50;1.30;;;21.40;99.90;;;;;;5139563;27;20372;-82
2022/09/27 05:15:52;;;;;;;1.90;1.13;;;21.00;99.90;;;;;;5120878;27;20405;-81
2022/09/27 05:18:19;;;;;;;1.42;1.33;;;20.70;99.90;;;;;;5139949;27;20373;-82
2022/09/27 05:20:46;;;;;;;2.55;1.50;;;20.50;99.90;;;;;;5141175;27;20754;-82
2022/09/27 05:23:14;;;;;;;2.88;1.77;;;20.20;99.90;;;;;;5139393;27;20471;-83
2022/09/27 05:25:41;;;;;;;2.80;1.80;;;19.90;99.90;;;;;;5139057;27;20379;-82
2022/09/27 05:28:09;;;;;;;1.73;1.57;;;19.70;99.90;;;;;;5135932;27;20387;-82
2022/09/27 05:30:36;;;;;;;1.85;1.48;;;19.50;99.90;;;;;;5121020;27;20859;-86
2022/09/27 05:33:04;;;;;;;3.60;1.50;;;19.60;99.90;;;;;;5135929;27;20389;-84
2022/09/27 05:35:32;;;;;;;2.40;1.50;;;19.40;99.90;;;;;;5117162;27;20376;-84
2022/09/27 05:38:00;;;;;;;1.70;1.60;;;19.40;99.90;;;;;;5136344;27;20932;-84
2022/09/27 05:40:28;;;;;;;1.52;1.40;;;19.40;99.90;;;;;;5135416;27;20385;-84
2022/09/27 05:42:55;;;;;;;2.92;1.67;;;19.30;99.90;;;;;;5147158;27;20735;-79
2022/09/27 05:45:24;;;;;;;1.70;1.60;;;19.20;99.90;;;;;;5140243;27;20397;-84
2022/09/27 05:47:56;;;;;;;2.25;1.70;;;19.20;99.90;;;;;;5144434;27;20842;-85
2022/09/27 05:50:25;;;;;;;3.75;2.20;;;19.20;99.90;;;;;;5145152;27;20376;-80
2022/09/27 05:52:52;;;;;;;7.72;2.80;;;19.20;99.90;;;;;;5144947;27;20373;-85
2022/09/27 05:55:19;;;;;;;5.90;2.97;;;19.20;99.90;;;;;;5146372;27;20376;-77
2022/09/27 05:58:01;;;;;;;5.00;2.87;;;19.30;99.90;;;;;;5144521;27;20444;-85
2022/09/27 06:00:29;;;;;;;3.42;2.10;;;19.70;99.90;;;;;;5145926;27;20396;-87
2022/09/27 06:02:59;;;;;;;2.83;2.00;;;19.90;99.90;;;;;;5132524;27;20385;-85
2022/09/27 06:05:27;;;;;;;5.53;1.90;;;20.10;99.90;;;;;;5128212;27;20415;-85
2022/09/27 06:08:00;;;;;;;2.10;1.90;;;20.10;99.90;;;;;;5135640;27;20388;-85
2022/09/27 06:10:28;;;;;;;3.03;1.92;;;20.20;99.90;;;;;;5128413;27;20364;-84
2022/09/27 06:13:04;;;;;;;5.30;2.72;;;20.30;99.90;;;;;;5134568;27;20446;-86
2022/09/27 06:15:32;;;;;;;6.07;2.85;;;20.30;99.90;;;;;;5134496;27;20856;-85
2022/09/27 06:18:05;;;;;;;4.22;2.47;;;20.20;99.90;;;;;;5134703;27;20445;-86
2022/09/27 06:20:33;;;;;;;3.60;2.53;;;20.10;99.90;;;;;;5131315;27;20412;-86
2022/09/27 06:23:12;;;;;;;3.75;2.47;;;20.10;99.90;;;;;;5132310;27;20449;-85
2022/09/27 06:25:40;;;;;;;5.97;2.30;;;20.00;99.90;;;;;;5129308;27;20423;-86
2022/09/27 06:28:08;;;;;;;3.88;1.85;;;20.00;99.90;;;;;;5135406;27;20880;-87
2022/09/27 06:30:39;;;;;;;3.80;2.10;;;19.90;99.90;;;;;;5121025;27;20364;-86
2022/09/27 06:33:07;;;;;;;6.07;2.33;;;19.90;99.90;;;;;;5105002;28;20422;-81
2022/09/27 06:35:35;;;;;;;3.00;2.20;;;19.80;99.90;;;;;;5135563;27;20370;-86
2022/09/27 06:38:10;;;;;;;3.92;2.47;;;19.70;99.90;;;;;;5135523;27;20392;-86
2022/09/27 06:40:37;;;;;;;5.05;2.70;;;19.70;99.90;;;;;;5136688;27;20765;-88
2022/09/27 06:43:09;;;;;;;4.20;2.50;;;19.50;99.90;;;;;;5137836;27;20369;-86
2022/09/27 06:45:37;;;;;;;4.97;2.50;;;19.50;99.90;;;;;;5138240;27;20373;-80
2022/09/27 06:48:06;;;;;;;6.35;2.38;;;19.50;99.90;;;;;;5139775;27;20381;-84
2022/09/27 06:50:35;;;;;;;2.78;1.90;;;19.50;99.90;;;;;;5137018;27;20373;-80
2022/09/27 06:53:04;;;;;;;3.90;2.10;;;19.50;99.90;;;;;;5133087;27;20377;-77
2022/09/27 06:55:31;;;;;;;3.08;2.00;;;19.50;99.90;;;;;;5132412;27;20581;-81
2022/09/27 07:00:52;;;;;;;6.57;3.43;;;19.70;99.90;;;;;;5134406;27;20895;-81
2022/09/27 07:03:31;;;;;;;7.93;3.92;;;20.00;99.90;;;;;;5135328;27;20426;-78
2022/09/27 07:06:03;;;;;;;5.35;3.35;;;20.50;99.90;;;;;;5135218;27;20404;-82
2022/09/27 07:08:32;;;;;;;5.10;2.67;;;21.20;99.90;;;;;;5133262;27;20493;-81
2022/09/27 07:11:05;;;;;;;5.68;3.03;;;21.80;99.90;;;;;;5132907;27;20373;-78
2022/09/27 07:13:35;;;;;;;5.45;2.70;;;21.90;99.90;;;;;;5133363;27;20460;-83
2022/09/27 07:16:03;;;;;;;2.92;2.30;;;21.60;99.90;;;;;;5132900;27;20394;-79
2022/09/27 07:18:30;;;;;;;3.00;2.27;;;21.10;99.90;;;;;;5133321;27;20375;-78
2022/09/27 07:21:00;;;;;;;5.20;2.37;;;20.60;99.90;;;;;;5110740;27;20456;-87
2022/09/27 07:23:27;;;;;;;4.57;2.00;;;20.30;99.90;;;;;;5134163;27;20461;-84
2022/09/27 07:25:55;;;;;;;3.88;2.20;;;20.10;99.90;;;;;;5127398;27;20373;-87
2022/09/27 07:28:22;;;;;;;3.03;2.05;;;19.70;99.90;;;;;;5133390;27;20787;-88
2022/09/27 07:30:54;;;;;;;2.40;2.20;;;19.50;99.90;;;;;;5133641;27;20426;-87
2022/09/27 07:33:21;;;;;;;5.10;2.70;;;19.40;99.90;;;;;;5133418;27;20440;-87
2022/09/27 07:35:48;;;;;;;5.10;2.83;;;19.30;99.90;;;;;;5112861;27;20445;-90
2022/09/27 07:38:16;;;;;;;4.57;2.90;;;19.20;99.90;;;;;;5132490;27;20388;-84
2022/09/27 07:40:43;;;;;;;6.22;3.20;;;19.00;99.90;;;;;;5131349;27;20398;-83
2022/09/27 07:43:11;;;;;;;5.53;3.23;;;18.90;99.90;;;;;;5132950;27;20420;-87
2022/09/27 07:45:38;;;;;;;4.45;3.30;;;18.70;99.90;;;;;;5132585;27;20377;-85
2022/09/27 07:48:06;;;;;;;6.45;3.42;;;18.60;99.90;;;;;;5132643;27;20388;-86
2022/09/27 07:50:34;;;;;;;7.45;3.50;;;18.40;99.90;;;;;;5132046;27;20373;-82
2022/09/27 07:53:01;;;;;;;6.72;3.75;;;18.30;99.90;;;;;;5132030;27;20454;-88
2022/09/27 07:55:28;;;;;;;5.78;3.58;;;18.30;99.90;;;;;;5133609;27;20806;-89
2022/09/27 07:58:09;;;;;;;6.97;3.50;;;18.10;99.90;;;;;;5133317;27;20401;-89
2022/09/27 08:00:38;;;;;;;5.57;3.30;;;18.00;99.90;;;;;;5075672;28;20370;-87
2022/09/27 08:03:07;;;;;;;4.28;2.85;;;17.90;99.90;;;;;;5089530;28;20392;-86
2022/09/27 08:05:35;;;;;;;3.42;2.50;;;17.80;99.90;;;;;;5089102;28;20397;-88
2022/09/27 08:08:03;;;;;;;3.15;2.65;;;17.60;99.90;;;;;;5064032;28;20394;-85
2022/09/27 08:10:31;;;;;;;4.97;2.85;;;17.60;99.90;;;;;;5067518;28;20926;-85
2022/09/27 08:13:03;;;;;;;3.83;2.60;;;17.50;99.90;;;;;;5089541;28;20435;-83
2022/09/27 08:15:42;;;;;;;5.72;2.80;;;17.40;99.90;;;;;;5078332;28;20865;-86
2022/09/27 08:18:10;;;;;;;4.45;3.00;;;17.30;99.90;;;;;;5082245;28;20981;-85
2022/09/27 08:20:37;;;;;;;5.78;2.90;;;17.20;99.90;;;;;;5075731;28;20417;-87
2022/09/27 08:23:04;;;;;;;4.07;2.83;;;17.20;99.90;;;;;;5058129;28;20391;-86
2022/09/27 08:25:34;;;;;;;6.63;3.88;;;17.10;99.90;;;;;;5084879;28;20471;-85
2022/09/27 08:28:09;;;;;;;5.90;3.95;;;17.10;99.90;;;;;;5069427;28;20981;-86
2022/09/27 08:30:37;;;;;;;6.20;4.20;;;17.00;99.90;;;;;;5068391;28;20389;-82
2022/09/27 08:33:04;;;;;;;8.20;5.82;;;17.00;99.90;;;;;;5086923;28;20408;-87
2022/09/27 08:35:32;;;;;;;8.93;6.57;;;16.90;99.90;;;;;;5074544;28;20406;-82
2022/09/27 08:38:00;;;;;;;8.87;5.97;;;16.90;99.90;;;;;;5097905;28;20445;-84
2022/09/27 08:40:56;;;;;;;9.13;5.90;;;16.90;99.90;;;;;;5131604;27;20365;-80
2022/09/27 08:43:46;;;;;;;7.97;4.82;;;16.90;99.90;;;;;;5113845;27;20389;-84
2022/09/27 08:46:44;;;;;;;7.07;4.60;;;16.80;99.90;;;;;;5123272;27;20377;-88
2022/09/27 08:49:42;;;;;;;7.95;4.20;;;16.80;99.90;;;;;;5131378;27;20376;-88
2022/09/27 08:52:26;;;;;;;7.20;4.40;;;16.80;99.90;;;;;;5120694;27;20789;-86
2022/09/27 08:54:57;;;;;;;6.87;4.27;;;16.80;99.90;;;;;;5129943;27;20380;-85
2022/09/27 08:57:25;;;;;;;7.37;4.80;;;16.90;99.90;;;;;;5130935;27;20488;-84
2022/09/27 09:00:07;;;;;;;7.13;4.40;;;16.90;99.90;;;;;;5131744;27;20370;-85
2022/09/27 09:02:36;;;;;;;8.77;4.50;;;16.90;99.90;;;;;;5130940;27;20565;-85
2022/09/27 09:05:38;;;;;;;5.93;4.00;;;17.00;99.90;;;;;;5130908;28;20721;-85
2022/09/27 09:08:11;;;;;;;9.98;4.18;;;17.00;99.90;;;;;;5126632;27;20404;-84
2022/09/27 09:14:07;;;;;;;6.90;4.35;;;17.00;99.90;;;;;;5132031;27;20469;-84
2022/09/27 09:16:52;;;;;;;5.72;4.20;;;17.00;99.90;;;;;;5123119;27;20883;-83
2022/09/27 09:19:36;;;;;;;7.10;4.85;;;17.10;99.90;;;;;;5130814;27;20372;-84
2022/09/27 09:22:27;;;;;;;8.87;4.87;;;17.10;99.90;;;;;;5137254;27;20372;-88
2022/09/27 09:25:28;;;;;;;7.05;5.13;;;17.00;99.90;;;;;;5100545;28;20454;-87
2022/09/27 09:28:14;;;;;;;8.10;5.50;;;17.00;99.90;;;;;;5135761;28;20372;-84
2022/09/27 09:31:08;;;;;;;6.22;5.10;;;16.90;99.90;;;;;;5131703;27;20371;-84
2022/09/27 09:33:43;;;;;;;7.05;4.80;;;16.90;99.90;;;;;;5127661;28;20384;-86
2022/09/27 09:36:24;;;;;;;7.88;4.63;;;16.80;99.90;;;;;;5130574;28;20752;-84
2022/09/27 09:39:02;;;;;;;9.20;5.10;;;16.80;99.90;;;;;;5131236;28;20914;-84
2022/09/27 09:42:02;;;;;;;6.15;4.50;;;16.80;99.90;;;;;;5131302;27;20413;-87
2022/09/27 09:44:38;;;;;;;8.15;4.80;;;16.80;99.90;;;;;;5049644;28;20410;-85
2022/09/27 09:47:22;;;;;;;8.25;4.68;;;16.70;99.90;;;;;;5054703;28;20835;-85
2022/09/27 09:49:53;;;;;;;6.77;4.00;;;16.70;99.90;;;;;;5049920;28;20419;-85
2022/09/27 09:52:24;;;;;;;6.38;4.10;;;16.70;99.90;;;;;;5062258;28;20475;-83
2022/09/27 09:55:03;;;;;;;5.90;3.95;;;16.60;99.90;;;;;;5050016;28;20925;-84
2022/09/27 09:58:01;;;;;;;4.75;3.88;;;16.60;99.90;;;;;;5054720;28;20473;-85
2022/09/27 10:00:28;;;;;;;6.77;3.73;;;16.60;99.90;;;;;;5060279;28;20788;-84
2022/09/27 10:02:58;;;;;;;5.87;3.60;;;16.60;99.90;;;;;;5062018;28;20461;-84
2022/09/27 10:05:28;;;;;;;5.85;3.63;;;16.60;99.90;;;;;;5065000;28;20380;-85
2022/09/27 10:08:00;;;;;;;6.90;3.70;;;16.60;99.90;;;;;;5067238;28;20398;-84
2022/09/27 10:10:28;;;;;;;7.07;3.65;;;16.60;99.90;;;;;;5059768;28;20422;-84
2022/09/27 10:12:56;;;;;;;4.63;3.03;;;16.50;99.90;;;;;;5062087;28;20493;-85
2022/09/27 10:15:31;;;;;;;6.82;3.38;;;16.50;99.90;;;;;;5069615;28;20418;-85
2022/09/27 10:18:00;;;;;;;3.83;2.95;;;16.40;99.90;;;;;;5057228;28;20505;-83
2022/09/27 10:20:46;;;;;;;4.13;2.90;;;16.40;99.90;;;;;;5066697;28;20723;-85
2022/09/27 10:23:20;;;;;;;3.92;3.10;;;16.40;99.90;;;;;;5126298;27;20814;-85
2022/09/27 10:26:01;;;;;;;5.30;2.80;;;16.30;99.90;;;;;;5115835;27;20379;-84
2022/09/27 10:28:37;;;;;;;4.30;2.87;;;16.30;99.90;;;;;;5132411;27;20442;-86
2022/09/27 10:31:33;;;;;;;3.72;2.70;;;16.30;99.90;;;;;;5133919;27;20736;-84
2022/09/27 10:34:06;;;;;;;4.25;2.92;;;16.20;99.90;;;;;;5120385;27;20371;-86
2022/09/27 10:36:35;;;;;;;4.97;2.83;;;16.20;99.90;;;;;;5116488;27;20413;-84
2022/09/27 10:39:05;;;;;;;4.07;3.13;;;16.10;99.90;;;;;;5117682;27;20410;-85
2022/09/27 10:41:40;;;;;;;6.22;3.50;;;16.10;99.90;;;;;;5114218;28;20371;-84
2022/09/27 10:44:19;;;;;;;5.80;3.50;;;16.00;99.90;;;;;;5127019;27;20391;-84
2022/09/27 10:46:55;;;;;;;4.85;3.00;;;16.00;99.90;;;;;;5118758;27;20427;-86
2022/09/27 10:49:33;;;;;;;4.78;3.00;;;15.90;99.90;;;;;;5108466;27;20434;-85
2022/09/27 10:52:03;;;;;;;4.88;3.20;;;15.80;99.90;;;;;;5121649;27;20383;-85
2022/09/27 10:54:36;;;;;;;6.03;3.92;;;15.80;99.90;;;;;;5126769;27;20383;-85
2022/09/27 10:57:17;;;;;;;8.85;4.93;;;15.80;99.90;;;;;;5115194;27;20745;-85
2022/09/27 10:59:46;;;;;;;4.43;3.30;;;15.70;99.90;;;;;;5113906;28;20369;-85
2022/09/27 11:02:20;;;;;;;5.50;3.20;;;15.70;99.90;;;;;;5114688;27;20409;-82
2022/09/27 11:05:11;;;;;;;5.10;3.20;;;15.70;99.90;;;;;;5098561;27;20369;-85
2022/09/27 11:07:49;;;;;;;5.65;3.65;;;15.70;99.90;;;;;;5116808;27;20472;-84
2022/09/27 11:10:23;;;;;;;4.63;3.65;;;15.70;99.90;;;;;;5123641;27;20374;-85
2022/09/27 11:13:10;;;;;;;6.80;4.07;;;15.80;99.90;;;;;;5128260;27;20407;-85
2022/09/27 11:16:03;;;;;;;7.33;4.30;;;15.80;99.90;;;;;;5114068;28;20466;-86
2022/09/27 11:18:46;;;;;;;7.23;4.10;;;15.80;99.90;;;;;;5127550;27;20397;-86
2022/09/27 11:21:13;;;;;;;8.97;4.40;;;15.90;99.90;;;;;;5117731;27;20414;-86
2022/09/27 11:23:55;;;;;;;7.60;4.20;;;15.90;99.90;;;;;;5125504;27;20394;-87
2022/09/27 11:26:43;;;;;;;8.02;3.90;;;15.90;99.90;;;;;;5124887;27;20384;-86
2022/09/27 11:29:29;;;;;;;7.85;3.97;;;15.90;99.90;;;;;;5112046;27;20460;-86
2022/09/27 11:32:36;;;;;;;7.18;4.05;;;15.90;99.90;;;;;;5134272;27;20374;-87
2022/09/27 11:35:25;;;;;;;8.88;3.97;;;15.80;99.90;;;;;;5117137;27;20377;-87
2022/09/27 11:38:24;;;;;;;6.55;4.03;;;15.80;99.90;;;;;;5117683;27;20456;-85
2022/09/27 11:41:03;;;;;;;5.53;3.70;;;15.70;99.90;;;;;;5133513;27;20388;-85
2022/09/27 11:43:48;;;;;;;6.43;3.60;;;15.60;99.90;;;;;;5135624;27;20384;-85
2022/09/27 11:46:23;;;;;;;7.00;3.80;;;15.60;99.90;;;;;;5134415;27;20369;-86
2022/09/27 11:49:06;;;;;;;6.67;3.70;;;15.60;99.90;;;;;;5134118;27;20476;-86
2022/09/27 11:51:57;;;;;;;5.85;3.60;;;15.60;99.90;;;;;;5133697;27;20883;-85
2022/09/27 11:54:39;;;;;;;5.68;3.40;;;15.60;99.90;;;;;;5132599;27;20932;-84
2022/09/27 11:57:25;;;;;;;6.70;3.45;;;15.60;99.90;;;;;;5134462;27;20405;-84
2022/09/27 11:59:52;;;;;;;7.57;3.58;;;15.60;99.90;;;;;;5130654;27;20397;-84
2022/09/27 12:02:56;;;;;;;10.00;4.20;;;15.70;99.90;;;;;;5126781;27;20841;-87
2022/09/27 12:05:41;;;;;;;6.43;3.77;;;15.70;99.90;;;;;;5132451;27;20413;-86
2022/09/27 12:08:12;;;;;;;8.35;3.95;;;15.70;99.90;;;;;;5119780;27;20377;-84
2022/09/27 12:10:42;;;;;;;6.47;3.60;;;15.80;99.90;;;;;;5132328;27;20362;-86
2022/09/27 12:13:13;;;;;;;5.83;3.90;;;15.80;99.90;;;;;;5120408;27;20419;-86
2022/09/27 12:15:44;;;;;;;6.57;3.90;;;15.80;99.90;;;;;;5133826;27;20844;-87
2022/09/27 12:18:21;;;;;;;9.10;4.05;;;15.70;99.90;;;;;;5132941;27;20397;-85
2022/09/27 12:20:50;;;;;;;6.23;3.80;;;15.80;99.90;;;;;;5133757;27;20454;-85
2022/09/27 12:23:35;;;;;;;7.47;4.03;;;15.70;99.90;;;;;;5113846;27;20952;-85
2022/09/27 12:26:18;;;;;;;6.05;4.10;;;15.60;99.90;;;;;;5105447;27;20379;-87
2022/09/27 12:29:16;;;;;;;6.15;3.85;;;15.60;99.90;;;;;;5132548;27;20381;-85
2022/09/27 12:32:10;;;;;;;6.18;3.83;;;15.50;99.90;;;;;;5129319;27;20420;-85
2022/09/27 12:34:40;;;;;;;7.45;3.97;;;15.40;99.90;;;;;;5133840;27;20400;-85
2022/09/27 12:37:30;;;;;;;7.93;3.90;;;15.50;99.90;;;;;;5140511;27;20393;-84
2022/09/27 12:40:22;;;;;;;9.40;4.20;;;15.40;99.90;;;;;;5144681;27;20409;-83
2022/09/27 12:43:04;;;;;;;7.82;4.40;;;15.40;99.90;;;;;;5153940;27;20365;-85
2022/09/27 12:45:51;;;;;;;8.20;4.20;;;15.40;99.90;;;;;;5154489;27;20377;-86
2022/09/27 12:48:50;;;;;;;6.40;4.00;;;15.40;99.90;;;;;;5153508;27;20376;-86
2022/09/27 12:51:21;;;;;;;7.00;3.80;;;15.40;99.90;;;;;;5123051;28;20370;-85
2022/09/27 12:54:11;;;;;;;10.55;4.72;;;15.40;99.90;;;;;;5146563;27;20376;-84
2022/09/27 12:57:25;;;;;;;10.27;4.70;;;15.40;99.90;;;;;;5154583;27;20409;-84
2022/09/27 13:00:10;;;;;;;10.27;4.50;;;15.40;99.90;;;;;;5072546;28;20384;-84
2022/09/27 13:02:55;;;;;;;9.48;4.20;;;15.30;99.90;;;;;;5071117;28;20380;-85
2022/09/27 13:05:52;;;;;;;8.00;4.30;;;15.30;99.90;;;;;;5048767;28;20382;-84
2022/09/27 13:08:46;;;;;;;13.27;4.90;;;15.30;99.90;;;;;;5011833;28;20407;-85
2022/09/27 13:11:22;;;;;;;13.70;4.72;;;15.30;99.90;;;;;;5018215;28;20390;-84
2022/09/27 13:13:54;;;;;;;12.95;4.70;;;15.30;99.90;;;;;;5028761;28;20857;-83
2022/09/27 13:16:21;;;;;;;11.55;4.80;;;15.30;99.90;;;;;;5011783;28;20789;-84
2022/09/27 13:18:51;;;;;;;12.10;4.82;;;15.30;99.90;;;;;;5028668;28;20932;-83
2022/09/27 13:21:48;;;;;;;9.07;4.38;;;15.20;99.90;;;;;;5029109;28;20491;-85
2022/09/27 13:24:40;;;;;;;10.63;4.50;;;15.10;99.90;;;;;;5011632;28;20389;-83
2022/09/27 13:27:28;;;;;;;12.05;4.85;;;15.10;99.90;;;;;;5014071;28;20901;-84
2022/09/27 13:30:10;;;;;;;14.70;5.25;;;15.10;99.90;;;;;;5029234;28;20784;-84
2022/09/27 13:32:37;;;;;;;9.25;4.75;;;15.00;99.90;;;;;;5033711;28;20397;-84